Time;durP1;ratioP1;P1;durP2;ratioP2;P2;SDS_P1;SDS_P2;PMS_P1;PMS_P2;Temp;Humidity;BMP_temperature;BMP_pressure;BME280_temperature;BME280_humidity;BME280_pressure;Samples;Min_cycle;Max_cycle;Signal;HPM_P1;HPM_P2
2022/03/15 00:00:24;;;;;;;13.25;5.97;;;7.60;90.80;;;;;;5009798;28;25067;-73
2022/03/15 00:02:50;;;;;;;13.50;5.55;;;7.60;90.80;;;;;;5009762;28;25109;-72
2022/03/15 00:05:17;;;;;;;16.90;5.50;;;7.50;91.00;;;;;;5013025;28;25075;-71
2022/03/15 00:07:44;;;;;;;18.40;5.50;;;7.50;91.20;;;;;;5011372;28;25167;-72
2022/03/15 00:10:12;;;;;;;14.32;6.10;;;7.50;91.40;;;;;;5009808;28;25137;-72
2022/03/15 00:12:38;;;;;;;12.40;5.20;;;7.50;91.50;;;;;;5008949;28;25091;-72
2022/03/15 00:15:08;;;;;;;10.68;5.45;;;7.50;91.50;;;;;;4990984;28;25119;-72
2022/03/15 00:17:37;;;;;;;17.83;6.25;;;7.50;91.40;;;;;;4991515;28;25079;-72
2022/03/15 00:20:06;;;;;;;21.05;7.22;;;7.40;91.80;;;;;;5008352;28;25075;-72
2022/03/15 00:22:35;;;;;;;18.80;7.15;;;7.40;92.10;;;;;;5008254;28;25056;-71
2022/03/15 00:25:06;;;;;;;17.33;6.45;;;7.40;92.30;;;;;;4999738;28;25048;-70
2022/03/15 00:27:35;;;;;;;18.60;6.97;;;7.40;92.70;;;;;;4995535;28;25063;-72
2022/03/15 00:30:03;;;;;;;14.85;7.00;;;7.40;92.80;;;;;;5008490;28;25076;-71
2022/03/15 00:32:28;;;;;;;17.35;7.43;;;7.40;92.70;;;;;;5007174;28;25071;-73
2022/03/15 00:34:54;;;;;;;18.02;6.63;;;7.40;92.90;;;;;;5008036;28;25063;-72
2022/03/15 00:37:20;;;;;;;16.77;6.72;;;7.40;92.70;;;;;;5007775;28;25105;-72
2022/03/15 00:39:46;;;;;;;19.60;7.00;;;7.50;92.90;;;;;;4997987;28;25086;-73
2022/03/15 00:42:12;;;;;;;13.95;6.88;;;7.40;92.80;;;;;;5007715;28;25060;-72
2022/03/15 00:44:38;;;;;;;20.13;6.47;;;7.40;92.90;;;;;;5007189;28;25106;-73
2022/03/15 00:47:04;;;;;;;16.00;7.15;;;7.40;92.60;;;;;;5001123;28;25055;-72
2022/03/15 00:49:30;;;;;;;17.23;6.75;;;7.30;92.70;;;;;;5008091;28;25075;-72
2022/03/15 00:51:56;;;;;;;18.27;6.85;;;7.30;93.10;;;;;;5007596;28;25081;-71
2022/03/15 00:54:21;;;;;;;19.80;7.40;;;7.40;93.30;;;;;;5007957;28;25080;-72
2022/03/15 00:56:47;;;;;;;22.63;7.03;;;7.40;93.40;;;;;;5000204;28;25126;-72
2022/03/15 00:59:14;;;;;;;18.58;7.07;;;7.40;93.40;;;;;;5007869;28;25127;-72
2022/03/15 01:01:40;;;;;;;16.15;7.25;;;7.30;93.20;;;;;;5010079;28;25065;-73
2022/03/15 01:04:06;;;;;;;19.38;7.85;;;7.30;93.40;;;;;;4995815;28;25078;-72
2022/03/15 01:06:31;;;;;;;15.32;7.25;;;7.20;93.70;;;;;;5007147;28;25143;-71
2022/03/15 01:08:57;;;;;;;22.20;7.68;;;7.20;94.20;;;;;;5008587;28;25063;-72
2022/03/15 01:11:22;;;;;;;13.85;6.85;;;7.20;93.90;;;;;;5008125;28;25064;-72
2022/03/15 01:13:48;;;;;;;22.73;8.93;;;7.30;93.90;;;;;;5007093;28;25123;-73
2022/03/15 01:16:14;;;;;;;18.15;8.25;;;7.30;93.70;;;;;;5007079;28;25069;-72
2022/03/15 01:18:41;;;;;;;19.45;7.75;;;7.30;93.50;;;;;;5007345;28;25069;-73
2022/03/15 01:21:07;;;;;;;20.75;9.20;;;7.30;93.50;;;;;;5007968;28;25094;-72
2022/03/15 01:23:33;;;;;;;17.88;8.18;;;7.30;93.70;;;;;;5007882;28;25154;-73
2022/03/15 01:25:58;;;;;;;23.45;8.55;;;7.30;93.70;;;;;;4989903;28;25074;-71
2022/03/15 01:28:24;;;;;;;22.38;9.38;;;7.40;93.90;;;;;;5007264;28;25069;-70
2022/03/15 01:30:50;;;;;;;26.70;10.90;;;7.40;93.90;;;;;;5007463;28;25099;-72
2022/03/15 01:33:17;;;;;;;19.95;9.18;;;7.30;93.70;;;;;;4988898;28;25077;-71
2022/03/15 01:35:42;;;;;;;27.00;10.95;;;7.30;93.80;;;;;;5007738;28;25101;-71
2022/03/15 01:38:09;;;;;;;28.45;11.73;;;7.30;94.00;;;;;;4990547;28;25149;-71
2022/03/15 01:40:34;;;;;;;22.45;11.18;;;7.40;94.40;;;;;;5007810;28;25073;-71
2022/03/15 01:43:00;;;;;;;35.25;12.30;;;7.40;94.70;;;;;;5007194;28;25138;-71
2022/03/15 01:45:34;;;;;;;27.02;12.35;;;7.40;94.50;;;;;;5007230;28;25085;-72
2022/03/15 01:48:00;;;;;;;24.58;11.45;;;7.40;94.30;;;;;;5007021;28;25067;-72
2022/03/15 01:50:26;;;;;;;25.95;11.75;;;7.40;94.50;;;;;;5007652;28;25099;-73
2022/03/15 01:52:52;;;;;;;25.38;12.65;;;7.40;94.70;;;;;;5006874;28;25102;-72
2022/03/15 01:55:18;;;;;;;26.75;13.32;;;7.40;94.70;;;;;;5008553;28;25058;-73
2022/03/15 01:57:44;;;;;;;33.88;12.52;;;7.40;94.70;;;;;;5011233;28;25063;-71
2022/03/15 02:00:09;;;;;;;30.45;14.00;;;7.40;94.90;;;;;;4993399;28;25061;-72
2022/03/15 02:02:35;;;;;;;26.30;13.10;;;7.40;95.10;;;;;;4992305;28;25153;-72
2022/03/15 02:05:01;;;;;;;25.25;12.57;;;7.40;95.00;;;;;;5011122;28;25103;-72
2022/03/15 02:07:27;;;;;;;27.83;13.40;;;7.40;94.90;;;;;;5011522;28;25065;-73
2022/03/15 02:09:52;;;;;;;33.33;13.70;;;7.50;94.80;;;;;;5009115;28;25067;-73
2022/03/15 02:12:18;;;;;;;31.38;13.15;;;7.60;94.60;;;;;;5005306;28;25057;-71
2022/03/15 02:14:44;;;;;;;25.50;14.52;;;7.60;94.40;;;;;;5010523;28;25132;-71
2022/03/15 02:17:10;;;;;;;25.48;13.55;;;7.60;94.30;;;;;;5010974;28;25062;-73
2022/03/15 02:19:37;;;;;;;26.77;13.95;;;7.60;94.40;;;;;;5010441;28;25083;-71
2022/03/15 02:22:03;;;;;;;30.02;13.13;;;7.50;94.30;;;;;;5010605;28;25078;-71
2022/03/15 02:24:29;;;;;;;29.23;14.23;;;7.50;94.30;;;;;;5010050;28;25099;-73
2022/03/15 02:26:54;;;;;;;28.45;14.38;;;7.50;94.40;;;;;;5010682;28;25078;-74
2022/03/15 02:29:21;;;;;;;31.13;15.85;;;7.60;94.50;;;;;;5010872;28;25094;-70
2022/03/15 02:31:47;;;;;;;30.33;15.00;;;7.60;94.50;;;;;;5010763;28;25177;-73
2022/03/15 02:34:12;;;;;;;34.28;15.40;;;7.70;94.60;;;;;;4992516;28;25099;-71
2022/03/15 02:36:38;;;;;;;40.88;15.95;;;7.70;94.50;;;;;;5010318;28;25065;-73
2022/03/15 02:39:03;;;;;;;31.17;15.35;;;7.70;94.30;;;;;;4992539;28;25119;-72
2022/03/15 02:41:29;;;;;;;32.50;15.75;;;7.70;94.50;;;;;;5010048;28;25103;-75
2022/03/15 02:43:56;;;;;;;34.08;16.60;;;7.70;94.50;;;;;;5009997;28;25063;-72
2022/03/15 02:46:27;;;;;;;31.13;14.88;;;7.70;94.30;;;;;;5009914;28;25103;-72
2022/03/15 02:48:53;;;;;;;34.13;15.60;;;7.80;94.20;;;;;;5010461;28;25052;-72
2022/03/15 02:51:18;;;;;;;34.15;16.15;;;7.80;93.90;;;;;;5009456;28;25068;-72
2022/03/15 02:53:44;;;;;;;29.83;16.08;;;7.70;93.70;;;;;;5009651;28;25077;-72
2022/03/15 02:56:11;;;;;;;34.50;15.05;;;7.70;93.90;;;;;;5011298;28;25065;-72
2022/03/15 02:58:40;;;;;;;33.58;16.13;;;7.80;94.00;;;;;;5011173;28;25133;-71
2022/03/15 03:01:07;;;;;;;36.08;16.30;;;7.80;93.70;;;;;;5007556;28;25120;-71
2022/03/15 03:03:34;;;;;;;27.63;15.73;;;7.80;94.00;;;;;;5006080;28;25069;-72
2022/03/15 03:05:59;;;;;;;40.78;17.02;;;7.80;93.70;;;;;;5010530;28;25052;-70
2022/03/15 03:08:27;;;;;;;35.85;17.95;;;7.80;93.70;;;;;;5007049;28;25154;-71
2022/03/15 03:10:52;;;;;;;29.00;16.60;;;7.80;93.90;;;;;;5011634;28;25083;-72
2022/03/15 03:13:26;;;;;;;36.10;16.75;;;7.80;93.60;;;;;;4995593;28;25064;-72
2022/03/15 03:15:56;;;;;;;35.55;17.60;;;7.80;93.20;;;;;;4995414;28;25156;-72
2022/03/15 03:18:28;;;;;;;29.08;17.13;;;7.80;93.40;;;;;;5009670;28;25071;-72
2022/03/15 03:20:54;;;;;;;28.90;16.67;;;7.70;93.50;;;;;;5003181;28;25180;-72
2022/03/15 03:23:20;;;;;;;35.13;16.55;;;7.80;93.30;;;;;;4994923;28;25146;-72
2022/03/15 03:25:45;;;;;;;29.85;16.38;;;7.80;93.60;;;;;;4993014;28;25073;-72
2022/03/15 03:28:13;;;;;;;28.73;15.38;;;7.90;93.40;;;;;;5009377;28;25109;-71
2022/03/15 03:30:41;;;;;;;33.55;15.88;;;8.00;92.90;;;;;;5001169;28;25048;-73
2022/03/15 03:33:07;;;;;;;27.05;16.23;;;8.10;92.60;;;;;;5005776;28;25068;-74
2022/03/15 03:35:32;;;;;;;32.00;17.10;;;8.00;92.40;;;;;;4994448;28;25145;-73
2022/03/15 03:37:58;;;;;;;30.98;17.88;;;8.00;92.20;;;;;;4991469;28;25057;-72
2022/03/15 03:40:24;;;;;;;26.13;16.33;;;7.90;92.30;;;;;;5008596;28;25114;-72
2022/03/15 03:42:49;;;;;;;32.03;17.38;;;7.90;92.50;;;;;;4991767;28;25068;-72
2022/03/15 03:45:15;;;;;;;32.17;17.42;;;7.90;92.60;;;;;;5008806;28;25141;-72
2022/03/15 03:47:40;;;;;;;33.05;15.82;;;7.90;92.60;;;;;;5008733;28;25063;-71
2022/03/15 03:50:08;;;;;;;35.47;17.45;;;7.80;92.70;;;;;;5008694;28;25076;-71
2022/03/15 03:52:34;;;;;;;34.83;17.08;;;7.80;92.80;;;;;;5008694;28;25070;-72
2022/03/15 03:55:00;;;;;;;36.20;17.40;;;7.80;93.10;;;;;;5008747;28;25072;-73
2022/03/15 03:57:26;;;;;;;34.80;16.35;;;7.90;93.20;;;;;;5008735;28;25370;-73
2022/03/15 03:59:51;;;;;;;32.22;18.35;;;7.80;92.80;;;;;;5008348;28;25052;-72
2022/03/15 04:02:17;;;;;;;36.60;18.15;;;7.80;93.20;;;;;;5009262;28;25070;-72
2022/03/15 04:04:43;;;;;;;33.95;17.20;;;7.80;93.00;;;;;;5008974;28;25079;-71
2022/03/15 04:07:11;;;;;;;36.25;17.52;;;7.70;93.00;;;;;;5009538;28;25091;-72
2022/03/15 04:09:38;;;;;;;34.17;17.58;;;7.70;93.10;;;;;;5007990;28;25069;-73
2022/03/15 04:12:06;;;;;;;32.75;16.55;;;7.70;93.40;;;;;;5009139;28;25086;-72
2022/03/15 04:14:35;;;;;;;25.10;16.80;;;7.70;93.60;;;;;;5008852;28;25540;-70
2022/03/15 04:17:03;;;;;;;38.60;18.27;;;7.80;93.70;;;;;;4991369;28;25106;-72
2022/03/15 04:19:28;;;;;;;34.22;18.17;;;7.90;93.10;;;;;;5009075;28;25069;-72
2022/03/15 04:21:54;;;;;;;39.60;18.77;;;7.70;92.90;;;;;;5010463;28;25057;-71
2022/03/15 04:24:19;;;;;;;34.63;18.00;;;7.60;93.40;;;;;;4991273;28;25084;-72
2022/03/15 04:26:46;;;;;;;31.88;17.88;;;7.50;93.80;;;;;;5009462;28;25125;-74
2022/03/15 04:29:12;;;;;;;37.85;18.98;;;7.60;94.10;;;;;;5007601;28;25039;-73
2022/03/15 04:31:37;;;;;;;39.65;18.63;;;7.60;93.90;;;;;;4982929;28;25065;-72
2022/03/15 04:34:03;;;;;;;35.00;19.45;;;7.70;93.80;;;;;;5008352;28;25119;-72
2022/03/15 04:36:28;;;;;;;34.08;19.35;;;7.70;93.80;;;;;;5008927;28;25079;-72
2022/03/15 04:38:54;;;;;;;34.85;18.88;;;7.70;93.90;;;;;;5008560;28;25097;-75
2022/03/15 04:41:19;;;;;;;38.35;18.75;;;7.60;93.80;;;;;;5008073;28;25074;-72
2022/03/15 04:43:45;;;;;;;39.80;19.23;;;7.70;94.50;;;;;;5007984;28;25088;-72
2022/03/15 04:46:11;;;;;;;33.10;17.90;;;7.70;94.10;;;;;;5008993;28;25083;-72
2022/03/15 04:48:37;;;;;;;35.35;19.02;;;7.70;93.90;;;;;;5008749;28;25116;-71
2022/03/15 04:51:03;;;;;;;36.47;19.02;;;7.80;93.80;;;;;;5009126;28;25144;-72
2022/03/15 04:53:28;;;;;;;32.35;19.10;;;7.80;93.80;;;;;;5010065;28;25122;-71
2022/03/15 04:55:54;;;;;;;34.58;17.92;;;7.80;93.80;;;;;;4998147;28;25061;-72
2022/03/15 04:58:20;;;;;;;29.88;17.65;;;7.80;93.80;;;;;;5000888;28;25052;-69
2022/03/15 05:00:45;;;;;;;30.70;18.25;;;7.80;93.60;;;;;;5030037;28;25063;-72
2022/03/15 05:03:11;;;;;;;35.05;18.50;;;7.90;93.50;;;;;;5034437;28;25047;-72
2022/03/15 05:05:37;;;;;;;37.28;19.48;;;7.90;93.50;;;;;;5016184;28;25073;-73
2022/03/15 05:08:03;;;;;;;36.35;19.80;;;7.90;93.60;;;;;;5030452;28;25099;-74
2022/03/15 05:13:14;;;;;;;30.55;17.88;;;7.90;93.70;;;;;;5008911;28;25075;-74
2022/03/15 05:15:39;;;;;;;35.58;18.98;;;7.80;93.50;;;;;;5008775;28;25150;-71
2022/03/15 05:18:05;;;;;;;34.40;18.85;;;7.70;93.70;;;;;;5008543;28;25074;-73
2022/03/15 05:20:31;;;;;;;29.35;19.20;;;7.80;93.90;;;;;;5008000;28;25152;-72
2022/03/15 05:22:57;;;;;;;31.52;17.80;;;7.80;93.70;;;;;;5008066;28;25154;-71
2022/03/15 05:25:23;;;;;;;39.30;18.95;;;7.70;94.10;;;;;;4990676;28;25139;-72
2022/03/15 05:27:49;;;;;;;33.15;18.08;;;7.50;94.30;;;;;;5009284;28;25115;-71
2022/03/15 05:30:16;;;;;;;34.80;19.17;;;7.60;94.50;;;;;;5012708;28;25073;-72
2022/03/15 05:32:41;;;;;;;31.88;19.80;;;7.60;94.30;;;;;;5018773;28;25054;-71
2022/03/15 05:35:07;;;;;;;32.03;20.13;;;7.60;94.40;;;;;;5013493;28;25059;-73
2022/03/15 05:37:33;;;;;;;34.88;19.20;;;7.60;94.40;;;;;;5014901;28;25082;-73
2022/03/15 05:39:58;;;;;;;29.20;19.75;;;7.60;94.30;;;;;;5010068;28;25133;-72
2022/03/15 05:42:24;;;;;;;33.97;19.33;;;7.40;94.10;;;;;;5009040;28;25074;-72
2022/03/15 05:44:49;;;;;;;34.63;19.27;;;7.30;94.40;;;;;;4996885;28;25088;-73
2022/03/15 05:47:15;;;;;;;40.97;19.98;;;7.30;94.60;;;;;;5005330;28;25068;-73
2022/03/15 05:49:41;;;;;;;32.70;18.75;;;7.30;95.00;;;;;;5006879;28;25590;-71
2022/03/15 05:52:07;;;;;;;45.88;19.63;;;7.30;95.40;;;;;;4990771;28;25077;-71
2022/03/15 05:54:34;;;;;;;34.15;19.48;;;7.20;95.20;;;;;;5009194;28;25075;-71
2022/03/15 05:57:00;;;;;;;39.03;19.67;;;7.20;95.10;;;;;;4991588;28;25060;-73
2022/03/15 05:59:25;;;;;;;37.80;20.10;;;7.10;95.10;;;;;;5009074;28;25063;-70
2022/03/15 06:01:51;;;;;;;37.28;19.88;;;7.20;95.40;;;;;;4990876;28;25147;-70
2022/03/15 06:04:17;;;;;;;34.08;19.05;;;7.20;94.80;;;;;;5008250;28;25062;-71
2022/03/15 06:06:43;;;;;;;34.53;20.95;;;7.20;94.90;;;;;;4985041;28;25085;-73
2022/03/15 06:09:09;;;;;;;41.72;21.17;;;7.20;95.00;;;;;;5015846;28;25081;-72
2022/03/15 06:11:39;;;;;;;34.63;20.33;;;7.20;94.90;;;;;;5013642;28;25131;-72
2022/03/15 06:14:05;;;;;;;35.90;21.42;;;7.10;95.20;;;;;;5016652;28;25089;-72
2022/03/15 06:16:31;;;;;;;31.80;20.08;;;7.10;95.50;;;;;;5001769;28;25081;-72
2022/03/15 06:18:56;;;;;;;34.15;20.13;;;7.20;95.60;;;;;;4999671;28;25074;-71
2022/03/15 06:21:23;;;;;;;38.92;21.30;;;7.30;95.00;;;;;;5004168;28;25078;-73
2022/03/15 06:23:49;;;;;;;46.17;20.80;;;7.30;95.30;;;;;;5018724;28;25060;-70
2022/03/15 06:26:15;;;;;;;36.90;20.73;;;7.30;95.10;;;;;;5011990;28;25073;-70
2022/03/15 06:28:41;;;;;;;37.53;22.45;;;7.20;94.90;;;;;;5005855;28;25067;-70
2022/03/15 06:31:07;;;;;;;41.78;21.90;;;7.30;95.00;;;;;;5006783;28;25078;-72
2022/03/15 06:33:33;;;;;;;38.35;21.05;;;7.20;94.70;;;;;;5013169;28;25047;-71
2022/03/15 06:35:58;;;;;;;42.60;21.67;;;7.20;94.60;;;;;;5012146;28;25070;-71
2022/03/15 06:38:24;;;;;;;42.78;22.48;;;7.20;94.60;;;;;;5022370;28;25074;-74
2022/03/15 06:40:51;;;;;;;39.08;21.35;;;7.20;94.80;;;;;;5023773;28;25084;-73
2022/03/15 06:43:17;;;;;;;38.45;21.92;;;7.30;94.40;;;;;;5025233;28;25049;-71
2022/03/15 06:45:43;;;;;;;56.22;22.30;;;7.30;94.20;;;;;;5024936;28;25098;-73
2022/03/15 06:48:09;;;;;;;40.92;22.50;;;7.30;94.10;;;;;;5018896;28;25074;-73
2022/03/15 06:50:35;;;;;;;36.58;22.80;;;7.30;94.00;;;;;;5025631;28;25097;-73
2022/03/15 06:53:02;;;;;;;37.17;23.20;;;7.30;93.80;;;;;;5007172;28;25160;-72
2022/03/15 06:55:29;;;;;;;39.88;22.48;;;7.20;93.90;;;;;;5010437;28;25374;-72
2022/03/15 06:57:54;;;;;;;34.25;22.40;;;7.10;94.30;;;;;;5007744;28;25063;-72
2022/03/15 07:00:20;;;;;;;46.22;23.67;;;7.10;94.40;;;;;;5010615;28;25099;-71
2022/03/15 07:02:45;;;;;;;48.75;24.48;;;7.10;94.80;;;;;;5012343;28;25063;-73
2022/03/15 07:05:11;;;;;;;44.92;24.30;;;7.10;94.80;;;;;;5011080;28;25058;-74
2022/03/15 07:07:37;;;;;;;39.63;24.20;;;7.20;95.00;;;;;;5012504;28;25073;-72
2022/03/15 07:10:09;;;;;;;46.53;25.33;;;7.30;95.00;;;;;;5011216;28;25071;-72
2022/03/15 07:12:36;;;;;;;40.20;23.53;;;7.30;94.50;;;;;;5015484;28;25140;-74
2022/03/15 07:15:03;;;;;;;43.88;25.90;;;7.20;94.10;;;;;;5021955;28;25102;-75
2022/03/15 07:17:30;;;;;;;43.60;24.42;;;7.10;94.50;;;;;;5019123;28;25103;-73
2022/03/15 07:19:57;;;;;;;44.30;24.63;;;7.00;94.80;;;;;;5024616;28;25076;-72
2022/03/15 07:22:24;;;;;;;46.55;23.92;;;7.10;95.20;;;;;;5021797;28;25059;-73
2022/03/15 07:24:50;;;;;;;39.55;22.65;;;7.10;95.40;;;;;;5020131;28;25085;-75
2022/03/15 07:27:16;;;;;;;38.63;23.60;;;7.30;95.30;;;;;;5021761;28;25081;-73
2022/03/15 07:29:42;;;;;;;45.15;25.02;;;7.30;94.80;;;;;;5020391;28;25078;-73
2022/03/15 07:32:07;;;;;;;41.72;23.58;;;7.30;94.90;;;;;;5021217;28;25051;-73
2022/03/15 07:34:33;;;;;;;38.90;24.35;;;7.30;94.90;;;;;;5021403;28;25094;-73
2022/03/15 07:36:58;;;;;;;40.50;22.70;;;7.30;94.70;;;;;;5023631;28;25065;-72
2022/03/15 07:39:24;;;;;;;42.13;23.65;;;7.40;94.60;;;;;;5025373;28;25072;-72
2022/03/15 07:41:50;;;;;;;37.65;21.83;;;7.30;94.10;;;;;;5027043;28;25071;-72
2022/03/15 07:44:16;;;;;;;35.13;21.13;;;7.30;94.30;;;;;;5025051;28;25092;-73
2022/03/15 07:46:48;;;;;;;38.25;21.58;;;7.30;94.20;;;;;;5029003;28;25073;-72
2022/03/15 07:49:18;;;;;;;35.72;20.30;;;7.40;94.10;;;;;;5023627;28;25149;-75
2022/03/15 07:51:44;;;;;;;31.30;19.92;;;7.50;93.70;;;;;;5023148;28;25057;-72
2022/03/15 07:54:10;;;;;;;37.90;20.17;;;7.50;93.40;;;;;;5023021;28;25057;-73
2022/03/15 07:56:36;;;;;;;36.75;20.17;;;7.60;93.00;;;;;;5023544;28;25097;-72
2022/03/15 07:59:02;;;;;;;32.17;18.88;;;7.60;92.80;;;;;;5025993;28;25081;-73
2022/03/15 08:01:27;;;;;;;31.88;18.13;;;7.60;92.50;;;;;;5025237;28;25076;-74
2022/03/15 08:03:53;;;;;;;28.13;17.65;;;7.60;92.10;;;;;;5005092;28;25053;-73
2022/03/15 08:06:19;;;;;;;28.52;16.80;;;7.60;92.20;;;;;;5029341;28;25139;-73
2022/03/15 08:08:45;;;;;;;27.33;15.90;;;7.60;92.10;;;;;;5014332;28;25090;-73
2022/03/15 08:11:10;;;;;;;30.63;16.48;;;7.70;91.60;;;;;;5030367;28;25085;-72
2022/03/15 08:13:36;;;;;;;29.40;16.90;;;7.80;91.40;;;;;;5032028;28;25083;-73
2022/03/15 08:16:03;;;;;;;30.92;17.58;;;7.80;91.00;;;;;;5030100;28;25106;-73
2022/03/15 08:18:29;;;;;;;32.65;17.52;;;7.90;91.10;;;;;;5026744;28;25057;-73
2022/03/15 08:20:55;;;;;;;28.60;16.80;;;8.00;90.80;;;;;;5019801;28;25047;-71
2022/03/15 08:23:21;;;;;;;27.00;16.13;;;7.90;90.60;;;;;;5014622;28;25087;-72
2022/03/15 08:25:47;;;;;;;30.05;16.33;;;7.90;90.50;;;;;;5017511;28;25102;-72
2022/03/15 08:28:13;;;;;;;30.73;17.00;;;7.90;90.80;;;;;;5013324;28;25090;-73
2022/03/15 08:30:38;;;;;;;31.17;16.52;;;8.00;91.00;;;;;;5014660;28;25060;-73
2022/03/15 08:33:04;;;;;;;40.58;16.80;;;8.00;90.90;;;;;;5008940;28;25086;-72
2022/03/15 08:35:30;;;;;;;26.90;15.88;;;8.00;90.70;;;;;;4998050;28;25061;-72
2022/03/15 08:37:55;;;;;;;29.73;16.05;;;8.10;90.70;;;;;;5001594;28;25072;-72
2022/03/15 08:40:22;;;;;;;26.95;14.93;;;8.10;90.80;;;;;;4976603;28;25059;-72
2022/03/15 08:42:48;;;;;;;26.38;15.23;;;8.10;90.40;;;;;;5010051;28;25138;-73
2022/03/15 08:45:14;;;;;;;22.25;15.18;;;8.10;90.50;;;;;;5011243;28;25096;-72
2022/03/15 08:47:40;;;;;;;30.40;15.25;;;8.00;89.70;;;;;;5003638;28;25091;-71
2022/03/15 08:50:08;;;;;;;27.05;14.05;;;8.00;90.40;;;;;;5012162;28;25070;-72
2022/03/15 08:52:34;;;;;;;24.88;15.30;;;8.00;90.30;;;;;;5010875;28;25103;-71
2022/03/15 08:55:00;;;;;;;30.55;15.50;;;8.10;90.10;;;;;;4994857;28;25110;-72
2022/03/15 08:57:25;;;;;;;27.23;14.85;;;8.20;90.00;;;;;;5012886;28;25071;-72
2022/03/15 08:59:51;;;;;;;22.15;14.15;;;8.20;90.00;;;;;;5017882;28;25079;-72
2022/03/15 09:02:17;;;;;;;22.75;14.30;;;8.30;89.50;;;;;;5018448;28;25093;-73
2022/03/15 09:04:43;;;;;;;29.20;15.88;;;8.30;89.20;;;;;;5018385;28;25047;-73
2022/03/15 09:07:10;;;;;;;30.63;15.18;;;8.30;88.50;;;;;;5020883;28;25104;-73
2022/03/15 09:09:38;;;;;;;33.65;15.02;;;8.30;88.60;;;;;;5023394;28;25077;-73
2022/03/15 09:12:05;;;;;;;22.17;14.40;;;8.30;88.20;;;;;;5021742;28;25089;-73
2022/03/15 09:14:31;;;;;;;28.45;15.70;;;8.30;87.90;;;;;;5018202;28;25048;-72
2022/03/15 09:16:57;;;;;;;20.35;13.82;;;8.30;87.40;;;;;;5018889;28;25145;-72
2022/03/15 09:19:23;;;;;;;56.22;17.98;;;8.40;87.50;;;;;;5018074;28;25065;-72
2022/03/15 09:21:49;;;;;;;30.38;14.02;;;8.40;87.70;;;;;;5018110;28;25078;-71
2022/03/15 09:24:14;;;;;;;24.77;14.55;;;8.50;86.60;;;;;;4999665;28;25133;-71
2022/03/15 09:26:42;;;;;;;26.00;13.82;;;8.50;86.00;;;;;;4998922;28;25074;-71
2022/03/15 09:29:12;;;;;;;25.98;14.50;;;8.50;86.40;;;;;;5017288;28;25073;-71
2022/03/15 09:31:38;;;;;;;28.67;14.75;;;8.50;85.80;;;;;;5013794;28;25075;-73
2022/03/15 09:34:04;;;;;;;26.52;13.40;;;8.50;86.30;;;;;;5012059;28;25120;-73
2022/03/15 09:36:29;;;;;;;25.23;14.00;;;8.60;86.30;;;;;;5011131;28;25205;-72
2022/03/15 09:38:56;;;;;;;25.13;14.20;;;8.50;86.00;;;;;;5010919;28;25115;-74
2022/03/15 09:41:25;;;;;;;25.80;12.90;;;8.60;86.10;;;;;;5012587;28;25101;-73
2022/03/15 09:43:53;;;;;;;24.95;12.95;;;8.60;85.10;;;;;;5011601;28;25082;-72
2022/03/15 09:46:21;;;;;;;21.65;12.75;;;8.60;84.50;;;;;;5004325;28;25073;-73
2022/03/15 09:48:51;;;;;;;24.80;13.27;;;8.70;84.60;;;;;;5023882;28;25076;-72
2022/03/15 09:51:18;;;;;;;23.55;13.65;;;8.70;84.30;;;;;;5025588;28;25071;-73
2022/03/15 09:53:44;;;;;;;25.95;13.05;;;8.80;84.40;;;;;;5017824;28;25056;-72
2022/03/15 09:56:11;;;;;;;34.05;14.27;;;8.80;84.00;;;;;;5015202;28;25138;-71
2022/03/15 09:58:37;;;;;;;17.80;13.00;;;8.90;84.30;;;;;;5012511;28;25061;-71
2022/03/15 10:01:03;;;;;;;20.65;12.82;;;9.00;83.80;;;;;;5012203;28;25074;-72
2022/03/15 10:03:29;;;;;;;27.00;12.90;;;9.00;84.10;;;;;;5011582;28;25070;-73
2022/03/15 10:05:55;;;;;;;18.83;12.57;;;9.10;83.30;;;;;;5011749;28;25062;-72
2022/03/15 10:08:20;;;;;;;21.50;12.38;;;9.30;83.40;;;;;;5011269;28;25168;-73
2022/03/15 10:10:51;;;;;;;21.90;12.60;;;9.30;82.60;;;;;;5012359;28;25076;-72
2022/03/15 10:13:17;;;;;;;19.60;11.18;;;9.40;82.00;;;;;;5009571;28;25103;-73
2022/03/15 10:15:55;;;;;;;21.63;10.90;;;9.50;80.60;;;;;;5010214;28;25080;-72
2022/03/15 10:18:21;;;;;;;19.92;11.23;;;9.50;80.30;;;;;;5014726;28;25069;-73
2022/03/15 10:20:48;;;;;;;18.13;10.40;;;9.60;80.60;;;;;;5014761;28;25041;-73
2022/03/15 10:23:16;;;;;;;20.58;10.85;;;9.60;79.80;;;;;;4980318;28;25134;-71
2022/03/15 10:25:45;;;;;;;27.30;11.88;;;9.60;79.60;;;;;;5016519;28;25062;-72
2022/03/15 10:28:12;;;;;;;19.98;11.25;;;9.60;79.60;;;;;;5038109;28;25058;-73
2022/03/15 10:30:37;;;;;;;18.73;10.77;;;9.70;78.10;;;;;;5038665;28;25078;-73
2022/03/15 10:33:05;;;;;;;21.67;11.75;;;9.80;78.70;;;;;;5028474;28;25084;-72
2022/03/15 10:35:36;;;;;;;18.20;10.50;;;9.90;77.50;;;;;;5028027;28;25055;-73
2022/03/15 10:38:04;;;;;;;22.38;11.35;;;10.00;76.80;;;;;;5025309;28;25079;-73
2022/03/15 10:40:37;;;;;;;16.13;10.18;;;10.00;77.00;;;;;;5003412;28;25115;-74
2022/03/15 10:43:15;;;;;;;18.95;10.40;;;10.00;76.30;;;;;;5023755;28;25071;-74
2022/03/15 10:45:50;;;;;;;19.55;10.05;;;10.10;75.20;;;;;;5019494;28;25105;-73
2022/03/15 10:48:22;;;;;;;18.42;9.60;;;10.20;73.40;;;;;;5020042;28;25057;-74
2022/03/15 10:50:58;;;;;;;21.65;10.48;;;10.30;73.00;;;;;;5022044;28;25062;-72
2022/03/15 10:53:27;;;;;;;20.70;11.27;;;10.40;73.70;;;;;;5020728;28;25082;-74
2022/03/15 10:56:18;;;;;;;19.48;9.70;;;10.40;74.00;;;;;;5019818;28;25171;-72
2022/03/15 10:58:51;;;;;;;18.65;9.88;;;10.50;72.90;;;;;;5022287;28;25104;-72
2022/03/15 11:01:19;;;;;;;15.18;9.32;;;10.50;71.20;;;;;;5020170;28;25087;-73
2022/03/15 11:03:53;;;;;;;16.92;9.40;;;10.50;72.90;;;;;;5017573;28;25107;-73
2022/03/15 11:06:40;;;;;;;21.30;10.20;;;10.60;72.10;;;;;;5017323;28;25130;-72
2022/03/15 11:09:26;;;;;;;17.77;9.15;;;10.70;71.60;;;;;;5018672;28;25078;-72
2022/03/15 11:12:00;;;;;;;16.98;9.65;;;11.10;71.90;;;;;;4997860;28;25100;-72
2022/03/15 11:14:55;;;;;;;18.10;9.13;;;11.70;71.00;;;;;;4994998;28;25066;-71
2022/03/15 11:17:23;;;;;;;16.85;8.50;;;12.10;68.90;;;;;;5012670;28;25082;-71
2022/03/15 11:19:54;;;;;;;14.93;8.30;;;12.40;63.60;;;;;;5013493;28;25059;-72
2022/03/15 11:22:28;;;;;;;20.95;8.00;;;12.90;62.50;;;;;;5012326;28;25089;-71
2022/03/15 11:25:10;;;;;;;15.13;7.50;;;13.40;58.50;;;;;;5012378;28;25051;-72
2022/03/15 11:27:41;;;;;;;15.45;7.78;;;13.50;57.50;;;;;;5011894;28;25127;-71
2022/03/15 11:30:09;;;;;;;13.45;7.55;;;13.50;54.30;;;;;;4993901;28;25115;-73
2022/03/15 11:32:36;;;;;;;13.75;7.28;;;13.80;56.70;;;;;;5013195;28;25058;-73
2022/03/15 11:35:04;;;;;;;16.75;8.30;;;14.20;55.80;;;;;;4994909;28;25082;-72
2022/03/15 11:37:30;;;;;;;16.42;7.63;;;13.90;50.40;;;;;;4979017;28;25068;-72
2022/03/15 11:39:58;;;;;;;14.52;7.55;;;13.80;56.20;;;;;;5012161;28;25113;-71
2022/03/15 11:42:27;;;;;;;14.80;7.50;;;14.10;55.30;;;;;;5011911;28;25154;-73
2022/03/15 11:44:59;;;;;;;24.60;8.30;;;14.40;51.60;;;;;;4976339;28;25093;-72
2022/03/15 11:47:47;;;;;;;13.98;7.38;;;14.70;51.90;;;;;;4992466;28;25076;-73
2022/03/15 11:50:26;;;;;;;20.90;6.80;;;14.90;51.10;;;;;;4991761;28;25096;-72
2022/03/15 11:53:03;;;;;;;11.73;6.93;;;15.10;48.80;;;;;;4996120;28;25164;-73
2022/03/15 11:55:44;;;;;;;10.75;5.97;;;15.20;48.70;;;;;;5012265;28;25066;-72
2022/03/15 11:58:10;;;;;;;15.23;6.25;;;14.90;47.80;;;;;;4993962;28;25075;-73
2022/03/15 12:00:45;;;;;;;14.35;6.95;;;15.10;49.80;;;;;;4993896;28;25101;-72
2022/03/15 12:03:15;;;;;;;203.82;16.58;;;15.30;46.20;;;;;;5012781;28;25053;-72
2022/03/15 12:05:51;;;;;;;77.78;9.82;;;15.50;47.30;;;;;;5013015;28;25075;-72
2022/03/15 12:08:23;;;;;;;14.27;6.68;;;15.80;46.30;;;;;;5010375;28;25082;-71
2022/03/15 12:10:55;;;;;;;15.13;6.32;;;16.00;44.00;;;;;;5011922;28;25060;-72
2022/03/15 12:13:31;;;;;;;19.95;6.63;;;16.00;44.90;;;;;;4993698;28;25058;-72
2022/03/15 12:16:13;;;;;;;12.13;6.40;;;16.50;44.90;;;;;;5007477;28;25095;-72
2022/03/15 12:18:48;;;;;;;13.48;6.25;;;16.40;41.40;;;;;;5000028;28;25075;-71
2022/03/15 12:21:15;;;;;;;10.93;6.07;;;16.60;43.10;;;;;;5006269;28;25053;-73
2022/03/15 12:23:42;;;;;;;99.78;10.18;;;16.20;41.60;;;;;;5011115;28;25051;-72
2022/03/15 12:26:26;;;;;;;20.90;7.05;;;16.50;42.10;;;;;;5006198;28;25140;-73
2022/03/15 12:29:04;;;;;;;68.38;10.95;;;16.60;41.60;;;;;;5007982;28;25072;-73
2022/03/15 12:31:47;;;;;;;15.20;6.10;;;16.80;40.80;;;;;;5026446;28;25078;-76
2022/03/15 12:34:15;;;;;;;59.83;11.85;;;17.10;39.50;;;;;;5029238;28;25061;-75
2022/03/15 12:36:49;;;;;;;12.50;5.57;;;17.20;37.80;;;;;;5031736;28;25096;-74
2022/03/15 12:39:17;;;;;;;12.55;5.40;;;16.30;38.50;;;;;;5029391;28;25050;-74
2022/03/15 12:41:44;;;;;;;8.70;4.88;;;16.00;42.40;;;;;;5025694;28;25078;-75